ヘルシンキ/ヴァンター の空港の天気 - METARとTAF

ヘルシンキ・ヴァンター国際空港 ( EFHK / HEL ) - フィンランド ヴァンター
飛行場実況気象(Metar)
観測時間10/22 14:50 EEST (10/22 11:50 UTC)
風向・風速南東 5m/s
視程5000m
天気現象弱い霧雨 弱い雨
全天の8割程度の雲 雲底高度 120m
気温10℃
湿度94%
気圧992hPa
METAREFHK 221150Z 13010KT 5000 -DZRA BKN004 10/09 Q0992 TEMPO 4000
過去の天気等 Google飛行場航空写真 Wunderground天気予報

過去48時間のMETAR

飛行場予報(TAF)
発表時間: 10/22 14:38 EEST (10/22 11:38 UTC)
予報対象時間: 22日15時 EEST ~ 23日15時 EEST
風向・風速南東 5m/s
視程8000m
天気現象弱い雨
全天の8割程度の雲 雲底高度 120m
22日15時 EEST ~ 22日21時 EEST に一時的に
視程4000m
天気現象弱い霧雨
22日18時 EEST ~ 22日20時 EEST に徐々に
風向・風速西南西 6m/s
22日21時 EEST ~ 23日6時 EEST に一時的に
視程3000m
天気現象もや
全天の4割程度の雲 雲底高度 90m
全天の8割程度の雲 雲底高度 460m
23日6時 EEST ~ 23日8時 EEST に徐々に
全天の8割程度の雲 雲底高度 460m
TAF EFHK 221138Z 2212/2312 14010KT 8000 -RA BKN004
TEMPO 2212/2218 4000 -DZ
BECMG 2215/2217 24012KT
TEMPO 2218/2303 3000 BR SCT003 BKN015
BECMG 2303/2305 BKN015